Brandenburg, KY

3:49 PM EDT on May 27, 2017 (GMT -0400)
Woodale Rd | | Change Station
Active Advisory: Severe Thunderstorm Watch

Elev 603 ft 38.00 °N, 86.17 °W | Updated 10 seconds ago

Mostly Cloudy
Mostly Cloudy
88.2 °F
Feels Like 97 °F
N
0.0
Wind Variable Wind from West
Gusts 0.0 mph

Today
High -- | Low -- °F
--% Chance of Precip.
Yesterday
High -- | Low -- °F
Precip. -- in
Pressure 29.85 in
Visibility 10.0 miles
Clouds Few 3000 ft
Heat Index 97 °F
Dew Point 74 °F
Humidity 62%
Rainfall 0.00 in
Snow Depth Not available.
6:25 AM 8:58 PM
Waxing Crescent, 6% visible
METAR KFTK 271858Z AUTO 25007KT 10SM FEW030 29/21 A2986 RMK AO2 SLP107 T02850209
Pressure 29.85 in
Visibility 10.0 miles
Clouds Few 3000 ft
Heat Index 97 °F
Dew Point 74 °F
Humidity 62%
Rainfall 0.00 in
Snow Depth Not available.
6:25 AM 8:58 PM
Waxing Crescent, 6% visible
METAR KFTK 271858Z AUTO 25007KT 10SM FEW030 29/21 A2986 RMK AO2 SLP107 T02850209

Get Your Daily Forecast Email!

Thanks for signing up!

Be on the lookout for a verification email in your inbox.

You'll start receiving severe weather alerts in your inbox..

×

10-Day Weather Forecast

Almanac

Astronomy

May. 27, 2017 Rise Set
Actual Time
Civil Twilight
Nautical Twilight
Astronomical Twilight
Moon
Length of Visible Light
Length of Day
Tomorrow will be .
, % of the Moon is Illuminated

Today's Extremes

State Highs State Lows

Community

WunderPhotos

Category 6

Welcome to Category 6. This is the collective home for Weather Underground's featured writeups by Dr. Jeff Masters (right), Bob Henson (left), Chris Burt, and other regular contributors.

Nearby

Air Quality

  Air Quality AQ Index Pollutant
Not available.

Snow Depth

Station Depth Elevation

Earthquake Activity

City Distance Mag. Time & Date
Minimum magnitude displayed is 2.5.

Coastal Water Temperatures

Place Temperature

Stations

Nearby Weather Stations

Station Location Temp. Windchill Dew Point Humidity Wind Precip. Elev Updated Type
                   

Watches & Warnings

Severe Thunderstorm Watch
Issued: 2:43 PM CDT May. 27, 2017 – National Weather Service

Severe Thunderstorm Watch 276 remains in effect until 900 PM CDT

KY
. Kentucky counties included are

Adair Allen Anderson
Ballard Barren Bourbon
Boyle Breckinridge Bullitt
Butler Caldwell Calloway
Carlisle Casey Christian
Clark Clinton Crittenden
Cumberland Daviess Edmonson
Fayette Franklin Fulton
Garrard Graves Grayson
green Hancock Hardin
Harrison Hart Henderson
Henry Hickman Hopkins
Jefferson Jessamine LaRue
Lincoln Livingston Logan
Lyon McCracken McLean
Madison Marion Marshall
Meade Mercer Metcalfe
Monroe Muhlenberg Nelson
Nicholas Ohio Oldham
Russell Scott Shelby
Simpson Spencer Taylor
Todd Trigg Trimble
Union Warren Washington
Webster Woodford